sensor_id;sensor_type;location;lat;lon;timestamp;temperature;humidity
68480;DHT22;55469;48.934;12.050;2024-02-21T00:00:55;6.80;99.90
68480;DHT22;55469;48.934;12.050;2024-02-21T00:03:21;6.80;99.90
68480;DHT22;55469;48.934;12.050;2024-02-21T00:05:46;6.80;99.90
68480;DHT22;55469;48.934;12.050;2024-02-21T00:08:12;6.80;99.90
68480;DHT22;55469;48.934;12.050;2024-02-21T00:10:37;6.80;99.90
68480;DHT22;55469;48.934;12.050;2024-02-21T00:13:03;6.80;99.90
68480;DHT22;55469;48.934;12.050;2024-02-21T00:15:29;6.80;99.90
68480;DHT22;55469;48.934;12.050;2024-02-21T00:17:54;6.80;99.90
68480;DHT22;55469;48.934;12.050;2024-02-21T00:20:20;6.80;99.90
68480;DHT22;55469;48.934;12.050;2024-02-21T00:22:46;6.80;99.90
68480;DHT22;55469;48.934;12.050;2024-02-21T00:25:11;6.80;99.90
68480;DHT22;55469;48.934;12.050;2024-02-21T00:27:37;6.80;99.90
68480;DHT22;55469;48.934;12.050;2024-02-21T00:30:04;6.80;99.90
68480;DHT22;55469;48.934;12.050;2024-02-21T00:32:30;6.80;99.90
68480;DHT22;55469;48.934;12.050;2024-02-21T00:34:57;6.80;99.90
68480;DHT22;55469;48.934;12.050;2024-02-21T00:37:23;6.80;99.90
68480;DHT22;55469;48.934;12.050;2024-02-21T00:39:48;6.80;99.90
68480;DHT22;55469;48.934;12.050;2024-02-21T00:42:14;6.80;99.90
68480;DHT22;55469;48.934;12.050;2024-02-21T00:44:39;6.80;99.90
68480;DHT22;55469;48.934;12.050;2024-02-21T00:47:05;6.80;99.90
68480;DHT22;55469;48.934;12.050;2024-02-21T00:49:31;6.80;99.90
68480;DHT22;55469;48.934;12.050;2024-02-21T00:51:56;6.80;99.90
68480;DHT22;55469;48.934;12.050;2024-02-21T00:54:22;6.70;99.90
68480;DHT22;55469;48.934;12.050;2024-02-21T00:56:48;6.80;99.90
68480;DHT22;55469;48.934;12.050;2024-02-21T00:59:13;6.70;99.90
68480;DHT22;55469;48.934;12.050;2024-02-21T01:01:39;6.70;99.90
68480;DHT22;55469;48.934;12.050;2024-02-21T01:04:08;6.70;99.90
68480;DHT22;55469;48.934;12.050;2024-02-21T01:06:34;6.70;99.90
68480;DHT22;55469;48.934;12.050;2024-02-21T01:09:00;6.70;99.90
68480;DHT22;55469;48.934;12.050;2024-02-21T01:11:25;6.70;99.90
68480;DHT22;55469;48.934;12.050;2024-02-21T01:13:51;6.70;99.90
68480;DHT22;55469;48.934;12.050;2024-02-21T01:16:17;6.60;99.90
68480;DHT22;55469;48.934;12.050;2024-02-21T01:18:42;6.60;99.90
68480;DHT22;55469;48.934;12.050;2024-02-21T01:21:08;6.60;99.90
68480;DHT22;55469;48.934;12.050;2024-02-21T01:23:35;6.60;99.90
68480;DHT22;55469;48.934;12.050;2024-02-21T01:26:01;6.60;99.90
68480;DHT22;55469;48.934;12.050;2024-02-21T01:28:27;6.60;99.90
68480;DHT22;55469;48.934;12.050;2024-02-21T01:30:53;6.60;99.90
68480;DHT22;55469;48.934;12.050;2024-02-21T01:33:19;6.60;99.90
68480;DHT22;55469;48.934;12.050;2024-02-21T01:35:44;6.60;99.90
68480;DHT22;55469;48.934;12.050;2024-02-21T01:38:12;6.60;99.90
68480;DHT22;55469;48.934;12.050;2024-02-21T01:40:38;6.60;99.90
68480;DHT22;55469;48.934;12.050;2024-02-21T01:43:03;6.60;99.90
68480;DHT22;55469;48.934;12.050;2024-02-21T01:45:29;6.50;99.90
68480;DHT22;55469;48.934;12.050;2024-02-21T01:47:55;6.50;99.90
68480;DHT22;55469;48.934;12.050;2024-02-21T01:50:20;6.50;99.90
68480;DHT22;55469;48.934;12.050;2024-02-21T01:52:47;6.50;99.90
68480;DHT22;55469;48.934;12.050;2024-02-21T01:55:14;6.50;99.90
68480;DHT22;55469;48.934;12.050;2024-02-21T01:57:41;6.50;99.90
68480;DHT22;55469;48.934;12.050;2024-02-21T02:00:08;6.50;99.90
68480;DHT22;55469;48.934;12.050;2024-02-21T02:02:35;6.50;99.90
68480;DHT22;55469;48.934;12.050;2024-02-21T02:05:01;6.50;99.90
68480;DHT22;55469;48.934;12.050;2024-02-21T02:07:26;6.50;99.90
68480;DHT22;55469;48.934;12.050;2024-02-21T02:09:52;6.50;99.90
68480;DHT22;55469;48.934;12.050;2024-02-21T02:12:18;6.50;99.90
68480;DHT22;55469;48.934;12.050;2024-02-21T02:14:44;6.50;99.90
68480;DHT22;55469;48.934;12.050;2024-02-21T02:17:09;6.40;99.90
68480;DHT22;55469;48.934;12.050;2024-02-21T02:19:35;6.40;99.90
68480;DHT22;55469;48.934;12.050;2024-02-21T02:22:09;6.40;99.90
68480;DHT22;55469;48.934;12.050;2024-02-21T02:24:36;6.50;99.90
68480;DHT22;55469;48.934;12.050;2024-02-21T02:27:01;6.50;99.90
68480;DHT22;55469;48.934;12.050;2024-02-21T02:29:27;6.40;99.90
68480;DHT22;55469;48.934;12.050;2024-02-21T02:31:52;6.40;99.90
68480;DHT22;55469;48.934;12.050;2024-02-21T02:34:18;6.40;99.90
68480;DHT22;55469;48.934;12.050;2024-02-21T02:36:44;6.40;99.90
68480;DHT22;55469;48.934;12.050;2024-02-21T02:39:10;6.40;99.90
68480;DHT22;55469;48.934;12.050;2024-02-21T02:41:36;6.40;99.90
68480;DHT22;55469;48.934;12.050;2024-02-21T02:44:01;6.40;99.90
68480;DHT22;55469;48.934;12.050;2024-02-21T02:46:27;6.40;99.90
68480;DHT22;55469;48.934;12.050;2024-02-21T02:48:52;6.40;99.90
68480;DHT22;55469;48.934;12.050;2024-02-21T02:51:18;6.40;99.90
68480;DHT22;55469;48.934;12.050;2024-02-21T02:53:44;6.40;99.90
68480;DHT22;55469;48.934;12.050;2024-02-21T02:56:13;6.40;99.90
68480;DHT22;55469;48.934;12.050;2024-02-21T02:58:59;6.30;99.90
68480;DHT22;55469;48.934;12.050;2024-02-21T03:01:24;6.40;99.90
68480;DHT22;55469;48.934;12.050;2024-02-21T03:03:50;6.40;99.90
68480;DHT22;55469;48.934;12.050;2024-02-21T03:06:16;6.40;99.90
68480;DHT22;55469;48.934;12.050;2024-02-21T03:08:41;6.40;99.90
68480;DHT22;55469;48.934;12.050;2024-02-21T03:11:08;6.30;99.90
68480;DHT22;55469;48.934;12.050;2024-02-21T03:13:34;6.30;99.90
68480;DHT22;55469;48.934;12.050;2024-02-21T03:15:59;6.40;99.90
68480;DHT22;55469;48.934;12.050;2024-02-21T03:18:25;6.30;99.90
68480;DHT22;55469;48.934;12.050;2024-02-21T03:20:50;6.30;99.90
68480;DHT22;55469;48.934;12.050;2024-02-21T03:23:16;6.30;99.90
68480;DHT22;55469;48.934;12.050;2024-02-21T03:25:42;6.30;99.90
68480;DHT22;55469;48.934;12.050;2024-02-21T03:28:07;6.30;99.90
68480;DHT22;55469;48.934;12.050;2024-02-21T03:30:33;6.30;99.90
68480;DHT22;55469;48.934;12.050;2024-02-21T03:32:59;6.30;99.90
68480;DHT22;55469;48.934;12.050;2024-02-21T03:35:25;6.30;99.90
68480;DHT22;55469;48.934;12.050;2024-02-21T03:37:52;6.30;99.90
68480;DHT22;55469;48.934;12.050;2024-02-21T03:40:18;6.30;99.90
68480;DHT22;55469;48.934;12.050;2024-02-21T03:42:43;6.30;99.90
68480;DHT22;55469;48.934;12.050;2024-02-21T03:45:09;6.30;99.90
68480;DHT22;55469;48.934;12.050;2024-02-21T03:47:35;6.30;99.90
68480;DHT22;55469;48.934;12.050;2024-02-21T03:50:00;6.30;99.90
68480;DHT22;55469;48.934;12.050;2024-02-21T03:52:26;6.30;99.90
68480;DHT22;55469;48.934;12.050;2024-02-21T03:54:52;6.30;99.90
68480;DHT22;55469;48.934;12.050;2024-02-21T03:57:18;6.30;99.90
68480;DHT22;55469;48.934;12.050;2024-02-21T03:59:44;6.30;99.90
68480;DHT22;55469;48.934;12.050;2024-02-21T04:02:09;6.30;99.90
68480;DHT22;55469;48.934;12.050;2024-02-21T04:04:35;6.30;99.90
68480;DHT22;55469;48.934;12.050;2024-02-21T04:07:04;6.30;99.90
68480;DHT22;55469;48.934;12.050;2024-02-21T04:09:32;6.30;99.90
68480;DHT22;55469;48.934;12.050;2024-02-21T04:11:59;6.30;99.90
68480;DHT22;55469;48.934;12.050;2024-02-21T04:14:25;6.30;99.90
68480;DHT22;55469;48.934;12.050;2024-02-21T04:16:51;6.20;99.90
68480;DHT22;55469;48.934;12.050;2024-02-21T04:19:17;6.20;99.90
68480;DHT22;55469;48.934;12.050;2024-02-21T04:21:42;6.20;99.90
68480;DHT22;55469;48.934;12.050;2024-02-21T04:24:08;6.20;99.90
68480;DHT22;55469;48.934;12.050;2024-02-21T04:26:33;6.20;99.90
68480;DHT22;55469;48.934;12.050;2024-02-21T04:28:59;6.20;99.90
68480;DHT22;55469;48.934;12.050;2024-02-21T04:31:25;6.20;99.90
68480;DHT22;55469;48.934;12.050;2024-02-21T04:33:50;6.20;99.90
68480;DHT22;55469;48.934;12.050;2024-02-21T04:36:16;6.20;99.90
68480;DHT22;55469;48.934;12.050;2024-02-21T04:38:42;6.20;99.90
68480;DHT22;55469;48.934;12.050;2024-02-21T04:41:07;6.20;99.90
68480;DHT22;55469;48.934;12.050;2024-02-21T04:43:33;6.20;99.90
68480;DHT22;55469;48.934;12.050;2024-02-21T04:45:59;6.20;99.90
68480;DHT22;55469;48.934;12.050;2024-02-21T04:48:25;6.20;99.90
68480;DHT22;55469;48.934;12.050;2024-02-21T04:50:51;6.20;99.90
68480;DHT22;55469;48.934;12.050;2024-02-21T04:53:17;6.20;99.90
68480;DHT22;55469;48.934;12.050;2024-02-21T04:55:42;6.20;99.90
68480;DHT22;55469;48.934;12.050;2024-02-21T04:58:08;6.20;99.90
68480;DHT22;55469;48.934;12.050;2024-02-21T05:00:34;6.20;99.90
68480;DHT22;55469;48.934;12.050;2024-02-21T05:02:59;6.10;99.90
68480;DHT22;55469;48.934;12.050;2024-02-21T05:05:25;6.20;99.90
68480;DHT22;55469;48.934;12.050;2024-02-21T05:07:50;6.20;99.90
68480;DHT22;55469;48.934;12.050;2024-02-21T05:10:16;6.20;99.90
68480;DHT22;55469;48.934;12.050;2024-02-21T05:12:42;6.20;99.90
68480;DHT22;55469;48.934;12.050;2024-02-21T05:15:08;6.20;99.90
68480;DHT22;55469;48.934;12.050;2024-02-21T05:17:34;6.10;99.90
68480;DHT22;55469;48.934;12.050;2024-02-21T05:19:59;6.20;99.90
68480;DHT22;55469;48.934;12.050;2024-02-21T05:22:25;6.10;99.90
68480;DHT22;55469;48.934;12.050;2024-02-21T05:24:51;6.20;99.90
68480;DHT22;55469;48.934;12.050;2024-02-21T05:27:16;6.10;99.90
68480;DHT22;55469;48.934;12.050;2024-02-21T05:29:42;6.10;99.90
68480;DHT22;55469;48.934;12.050;2024-02-21T05:32:08;6.10;99.90
68480;DHT22;55469;48.934;12.050;2024-02-21T05:34:33;6.10;99.90
68480;DHT22;55469;48.934;12.050;2024-02-21T05:36:59;6.10;99.90
68480;DHT22;55469;48.934;12.050;2024-02-21T05:39:26;6.10;99.90
68480;DHT22;55469;48.934;12.050;2024-02-21T05:41:51;6.10;99.90
68480;DHT22;55469;48.934;12.050;2024-02-21T05:44:17;6.10;99.90
68480;DHT22;55469;48.934;12.050;2024-02-21T05:46:43;6.10;99.90
68480;DHT22;55469;48.934;12.050;2024-02-21T05:49:09;6.10;99.90
68480;DHT22;55469;48.934;12.050;2024-02-21T05:51:35;6.10;99.90
68480;DHT22;55469;48.934;12.050;2024-02-21T05:54:00;6.10;99.90
68480;DHT22;55469;48.934;12.050;2024-02-21T05:56:26;6.10;99.90
68480;DHT22;55469;48.934;12.050;2024-02-21T05:58:53;6.10;99.90
68480;DHT22;55469;48.934;12.050;2024-02-21T06:01:19;6.10;99.90
68480;DHT22;55469;48.934;12.050;2024-02-21T06:03:46;6.10;99.90
68480;DHT22;55469;48.934;12.050;2024-02-21T06:06:11;6.10;99.90
68480;DHT22;55469;48.934;12.050;2024-02-21T06:08:39;6.10;99.90
68480;DHT22;55469;48.934;12.050;2024-02-21T06:11:05;6.10;99.90
68480;DHT22;55469;48.934;12.050;2024-02-21T06:13:30;6.10;99.90
68480;DHT22;55469;48.934;12.050;2024-02-21T06:15:56;6.10;99.90
68480;DHT22;55469;48.934;12.050;2024-02-21T06:18:21;6.10;99.90
68480;DHT22;55469;48.934;12.050;2024-02-21T06:20:47;6.10;99.90
68480;DHT22;55469;48.934;12.050;2024-02-21T06:23:14;6.10;99.90
68480;DHT22;55469;48.934;12.050;2024-02-21T06:25:41;6.10;99.90
68480;DHT22;55469;48.934;12.050;2024-02-21T06:28:06;6.10;99.90
68480;DHT22;55469;48.934;12.050;2024-02-21T06:30:32;6.10;99.90
68480;DHT22;55469;48.934;12.050;2024-02-21T06:32:57;6.00;99.90
68480;DHT22;55469;48.934;12.050;2024-02-21T06:35:24;6.10;99.90
68480;DHT22;55469;48.934;12.050;2024-02-21T06:37:50;6.10;99.90
68480;DHT22;55469;48.934;12.050;2024-02-21T06:40:23;6.10;99.90
68480;DHT22;55469;48.934;12.050;2024-02-21T06:42:49;6.10;99.90
68480;DHT22;55469;48.934;12.050;2024-02-21T06:45:15;6.10;99.90
68480;DHT22;55469;48.934;12.050;2024-02-21T06:47:41;6.10;99.90
68480;DHT22;55469;48.934;12.050;2024-02-21T06:50:07;6.10;99.90
68480;DHT22;55469;48.934;12.050;2024-02-21T06:52:34;6.10;99.90
68480;DHT22;55469;48.934;12.050;2024-02-21T06:54:59;6.10;99.90
68480;DHT22;55469;48.934;12.050;2024-02-21T06:57:25;6.10;99.90
68480;DHT22;55469;48.934;12.050;2024-02-21T06:59:50;6.10;99.90
68480;DHT22;55469;48.934;12.050;2024-02-21T07:02:16;6.10;99.90
68480;DHT22;55469;48.934;12.050;2024-02-21T07:04:42;6.10;99.90
68480;DHT22;55469;48.934;12.050;2024-02-21T07:07:08;6.10;99.90
68480;DHT22;55469;48.934;12.050;2024-02-21T07:09:34;6.10;99.90
68480;DHT22;55469;48.934;12.050;2024-02-21T07:12:00;6.10;99.90
68480;DHT22;55469;48.934;12.050;2024-02-21T07:14:27;6.10;99.90
68480;DHT22;55469;48.934;12.050;2024-02-21T07:16:53;6.10;99.90
68480;DHT22;55469;48.934;12.050;2024-02-21T07:19:19;6.10;99.90
68480;DHT22;55469;48.934;12.050;2024-02-21T07:21:45;6.10;99.90
68480;DHT22;55469;48.934;12.050;2024-02-21T07:24:11;6.10;99.90
68480;DHT22;55469;48.934;12.050;2024-02-21T07:26:37;6.10;99.90
68480;DHT22;55469;48.934;12.050;2024-02-21T07:29:02;6.10;99.90
68480;DHT22;55469;48.934;12.050;2024-02-21T07:31:28;6.00;99.90
68480;DHT22;55469;48.934;12.050;2024-02-21T07:33:53;6.10;99.90
68480;DHT22;55469;48.934;12.050;2024-02-21T07:36:27;6.10;99.90
68480;DHT22;55469;48.934;12.050;2024-02-21T07:38:55;6.10;99.90
68480;DHT22;55469;48.934;12.050;2024-02-21T07:41:21;6.10;99.90
68480;DHT22;55469;48.934;12.050;2024-02-21T07:43:47;6.10;99.90
68480;DHT22;55469;48.934;12.050;2024-02-21T07:46:14;6.10;99.90
68480;DHT22;55469;48.934;12.050;2024-02-21T07:48:39;6.10;99.90
68480;DHT22;55469;48.934;12.050;2024-02-21T07:51:05;6.10;99.90
68480;DHT22;55469;48.934;12.050;2024-02-21T07:53:31;6.10;99.90
68480;DHT22;55469;48.934;12.050;2024-02-21T07:55:56;6.10;99.90
68480;DHT22;55469;48.934;12.050;2024-02-21T07:58:22;6.10;99.90
68480;DHT22;55469;48.934;12.050;2024-02-21T08:00:48;6.10;99.90
68480;DHT22;55469;48.934;12.050;2024-02-21T08:03:13;6.10;99.90
68480;DHT22;55469;48.934;12.050;2024-02-21T08:05:40;6.10;99.90
68480;DHT22;55469;48.934;12.050;2024-02-21T08:08:06;6.10;99.90
68480;DHT22;55469;48.934;12.050;2024-02-21T08:10:33;6.10;99.90
68480;DHT22;55469;48.934;12.050;2024-02-21T08:12:59;6.10;99.90
68480;DHT22;55469;48.934;12.050;2024-02-21T08:15:25;6.10;99.90
68480;DHT22;55469;48.934;12.050;2024-02-21T08:17:57;6.20;99.90
68480;DHT22;55469;48.934;12.050;2024-02-21T08:20:26;6.20;99.90
68480;DHT22;55469;48.934;12.050;2024-02-21T08:22:52;6.10;99.90
68480;DHT22;55469;48.934;12.050;2024-02-21T08:25:18;6.20;99.90
68480;DHT22;55469;48.934;12.050;2024-02-21T08:27:43;6.20;99.90
68480;DHT22;55469;48.934;12.050;2024-02-21T08:30:10;6.20;99.90
68480;DHT22;55469;48.934;12.050;2024-02-21T08:32:36;6.20;99.90
68480;DHT22;55469;48.934;12.050;2024-02-21T08:35:02;6.20;99.90
68480;DHT22;55469;48.934;12.050;2024-02-21T08:37:28;6.20;99.90
68480;DHT22;55469;48.934;12.050;2024-02-21T08:39:54;6.20;99.90
68480;DHT22;55469;48.934;12.050;2024-02-21T08:42:19;6.20;99.90
68480;DHT22;55469;48.934;12.050;2024-02-21T08:44:45;6.20;99.90
68480;DHT22;55469;48.934;12.050;2024-02-21T08:47:11;6.30;99.90
68480;DHT22;55469;48.934;12.050;2024-02-21T08:49:37;6.30;99.90
68480;DHT22;55469;48.934;12.050;2024-02-21T08:52:02;6.30;99.90
68480;DHT22;55469;48.934;12.050;2024-02-21T08:54:28;6.30;99.90
68480;DHT22;55469;48.934;12.050;2024-02-21T08:56:54;6.30;99.90
68480;DHT22;55469;48.934;12.050;2024-02-21T08:59:20;6.30;99.90
68480;DHT22;55469;48.934;12.050;2024-02-21T09:01:46;6.30;99.90
68480;DHT22;55469;48.934;12.050;2024-02-21T09:04:12;6.30;99.90
68480;DHT22;55469;48.934;12.050;2024-02-21T09:06:37;6.30;99.90
68480;DHT22;55469;48.934;12.050;2024-02-21T09:09:07;6.30;99.90
68480;DHT22;55469;48.934;12.050;2024-02-21T09:11:34;6.30;99.90
68480;DHT22;55469;48.934;12.050;2024-02-21T09:13:59;6.30;99.90
68480;DHT22;55469;48.934;12.050;2024-02-21T09:16:25;6.30;99.90
68480;DHT22;55469;48.934;12.050;2024-02-21T09:18:51;6.30;99.90
68480;DHT22;55469;48.934;12.050;2024-02-21T09:21:18;6.30;99.90
68480;DHT22;55469;48.934;12.050;2024-02-21T09:23:43;6.30;99.90
68480;DHT22;55469;48.934;12.050;2024-02-21T09:26:10;6.40;99.90
68480;DHT22;55469;48.934;12.050;2024-02-21T09:28:39;6.40;99.90
68480;DHT22;55469;48.934;12.050;2024-02-21T09:31:05;6.40;99.90
68480;DHT22;55469;48.934;12.050;2024-02-21T09:33:30;6.40;99.90
68480;DHT22;55469;48.934;12.050;2024-02-21T09:35:56;6.40;99.90
68480;DHT22;55469;48.934;12.050;2024-02-21T09:38:21;6.40;99.90
68480;DHT22;55469;48.934;12.050;2024-02-21T09:40:47;6.40;99.90
68480;DHT22;55469;48.934;12.050;2024-02-21T09:43:17;6.40;99.90
68480;DHT22;55469;48.934;12.050;2024-02-21T09:45:43;6.40;99.90
68480;DHT22;55469;48.934;12.050;2024-02-21T09:50:59;6.40;99.90
68480;DHT22;55469;48.934;12.050;2024-02-21T09:53:26;6.40;99.90
68480;DHT22;55469;48.934;12.050;2024-02-21T09:55:52;6.40;99.90
68480;DHT22;55469;48.934;12.050;2024-02-21T09:58:18;6.50;99.90
68480;DHT22;55469;48.934;12.050;2024-02-21T10:00:43;6.40;99.90
68480;DHT22;55469;48.934;12.050;2024-02-21T10:03:09;6.50;99.90
68480;DHT22;55469;48.934;12.050;2024-02-21T10:05:35;6.50;99.90
68480;DHT22;55469;48.934;12.050;2024-02-21T10:08:02;6.50;99.90
68480;DHT22;55469;48.934;12.050;2024-02-21T10:10:28;6.50;99.90
68480;DHT22;55469;48.934;12.050;2024-02-21T10:12:55;6.50;99.90
68480;DHT22;55469;48.934;12.050;2024-02-21T10:15:21;6.50;99.90
68480;DHT22;55469;48.934;12.050;2024-02-21T10:17:48;6.50;99.90
68480;DHT22;55469;48.934;12.050;2024-02-21T10:20:13;6.60;99.90
68480;DHT22;55469;48.934;12.050;2024-02-21T10:22:40;6.60;99.90
68480;DHT22;55469;48.934;12.050;2024-02-21T10:25:09;6.60;99.90
68480;DHT22;55469;48.934;12.050;2024-02-21T10:27:39;6.60;99.90
68480;DHT22;55469;48.934;12.050;2024-02-21T10:30:06;6.60;99.90
68480;DHT22;55469;48.934;12.050;2024-02-21T10:32:32;6.60;99.90
68480;DHT22;55469;48.934;12.050;2024-02-21T10:35:02;6.70;99.90
68480;DHT22;55469;48.934;12.050;2024-02-21T10:37:29;6.60;99.90
68480;DHT22;55469;48.934;12.050;2024-02-21T10:39:55;6.70;99.90
68480;DHT22;55469;48.934;12.050;2024-02-21T10:42:22;6.70;99.90
68480;DHT22;55469;48.934;12.050;2024-02-21T10:44:50;6.70;99.90
68480;DHT22;55469;48.934;12.050;2024-02-21T10:47:19;6.80;99.90
68480;DHT22;55469;48.934;12.050;2024-02-21T10:49:49;6.70;99.90
68480;DHT22;55469;48.934;12.050;2024-02-21T10:55:26;6.80;99.90
68480;DHT22;55469;48.934;12.050;2024-02-21T10:57:57;6.80;99.90
68480;DHT22;55469;48.934;12.050;2024-02-21T11:00:23;6.80;99.90
68480;DHT22;55469;48.934;12.050;2024-02-21T11:02:56;6.80;99.90
68480;DHT22;55469;48.934;12.050;2024-02-21T11:05:23;6.90;99.90
68480;DHT22;55469;48.934;12.050;2024-02-21T11:07:49;6.90;99.90
68480;DHT22;55469;48.934;12.050;2024-02-21T11:10:25;6.90;99.90
68480;DHT22;55469;48.934;12.050;2024-02-21T11:13:07;6.90;99.90
68480;DHT22;55469;48.934;12.050;2024-02-21T11:15:33;6.90;99.90
68480;DHT22;55469;48.934;12.050;2024-02-21T11:17:59;7.00;99.90
68480;DHT22;55469;48.934;12.050;2024-02-21T11:20:34;7.00;99.90
68480;DHT22;55469;48.934;12.050;2024-02-21T11:23:00;6.90;99.90
68480;DHT22;55469;48.934;12.050;2024-02-21T11:25:27;7.00;99.90
68480;DHT22;55469;48.934;12.050;2024-02-21T11:30:27;7.00;99.90
68480;DHT22;55469;48.934;12.050;2024-02-21T11:33:02;7.00;99.90
68480;DHT22;55469;48.934;12.050;2024-02-21T11:35:35;7.10;99.90
68480;DHT22;55469;48.934;12.050;2024-02-21T11:38:08;7.10;99.90
68480;DHT22;55469;48.934;12.050;2024-02-21T11:40:37;7.10;99.90
68480;DHT22;55469;48.934;12.050;2024-02-21T11:43:07;7.10;99.90
68480;DHT22;55469;48.934;12.050;2024-02-21T11:45:33;7.20;99.90
68480;DHT22;55469;48.934;12.050;2024-02-21T11:47:59;7.20;99.90
68480;DHT22;55469;48.934;12.050;2024-02-21T11:50:26;7.20;99.90
68480;DHT22;55469;48.934;12.050;2024-02-21T11:52:54;7.20;99.90
68480;DHT22;55469;48.934;12.050;2024-02-21T11:55:20;7.20;99.90
68480;DHT22;55469;48.934;12.050;2024-02-21T11:57:47;7.30;99.90
68480;DHT22;55469;48.934;12.050;2024-02-21T12:00:16;7.30;99.90
68480;DHT22;55469;48.934;12.050;2024-02-21T12:02:45;7.30;99.90
68480;DHT22;55469;48.934;12.050;2024-02-21T12:05:11;7.30;99.90
68480;DHT22;55469;48.934;12.050;2024-02-21T12:07:37;7.40;99.90
68480;DHT22;55469;48.934;12.050;2024-02-21T12:10:08;7.40;99.90
68480;DHT22;55469;48.934;12.050;2024-02-21T12:12:35;7.40;99.90
68480;DHT22;55469;48.934;12.050;2024-02-21T12:15:03;7.40;99.90
68480;DHT22;55469;48.934;12.050;2024-02-21T12:17:35;7.40;99.90
68480;DHT22;55469;48.934;12.050;2024-02-21T12:20:02;7.40;99.90
68480;DHT22;55469;48.934;12.050;2024-02-21T12:22:36;7.50;99.90
68480;DHT22;55469;48.934;12.050;2024-02-21T12:25:03;7.50;99.90
68480;DHT22;55469;48.934;12.050;2024-02-21T12:27:29;7.50;99.90
68480;DHT22;55469;48.934;12.050;2024-02-21T12:29:55;7.50;99.90
68480;DHT22;55469;48.934;12.050;2024-02-21T12:32:20;7.50;99.90
68480;DHT22;55469;48.934;12.050;2024-02-21T12:34:46;7.50;99.90
68480;DHT22;55469;48.934;12.050;2024-02-21T12:37:12;7.50;99.90
68480;DHT22;55469;48.934;12.050;2024-02-21T12:39:40;7.60;99.90
68480;DHT22;55469;48.934;12.050;2024-02-21T12:42:05;7.50;99.90
68480;DHT22;55469;48.934;12.050;2024-02-21T12:44:31;7.50;99.90
68480;DHT22;55469;48.934;12.050;2024-02-21T12:46:57;7.60;99.90
68480;DHT22;55469;48.934;12.050;2024-02-21T12:49:23;7.60;99.90
68480;DHT22;55469;48.934;12.050;2024-02-21T12:51:49;7.60;99.90
68480;DHT22;55469;48.934;12.050;2024-02-21T12:54:15;7.60;99.90
68480;DHT22;55469;48.934;12.050;2024-02-21T12:56:40;7.70;99.90
68480;DHT22;55469;48.934;12.050;2024-02-21T12:59:06;7.70;99.90
68480;DHT22;55469;48.934;12.050;2024-02-21T13:01:34;7.60;99.90
68480;DHT22;55469;48.934;12.050;2024-02-21T13:04:01;7.70;99.90
68480;DHT22;55469;48.934;12.050;2024-02-21T13:06:26;7.70;99.90
68480;DHT22;55469;48.934;12.050;2024-02-21T13:08:53;7.70;99.90
68480;DHT22;55469;48.934;12.050;2024-02-21T13:11:18;7.70;99.90
68480;DHT22;55469;48.934;12.050;2024-02-21T13:13:44;7.80;99.90
68480;DHT22;55469;48.934;12.050;2024-02-21T13:16:10;7.80;99.90
68480;DHT22;55469;48.934;12.050;2024-02-21T13:18:36;7.80;99.90
68480;DHT22;55469;48.934;12.050;2024-02-21T13:21:08;7.80;99.90
68480;DHT22;55469;48.934;12.050;2024-02-21T13:23:33;7.80;99.90
68480;DHT22;55469;48.934;12.050;2024-02-21T13:25:59;7.80;99.90
68480;DHT22;55469;48.934;12.050;2024-02-21T13:28:25;7.90;99.90
68480;DHT22;55469;48.934;12.050;2024-02-21T13:30:50;7.90;99.90
68480;DHT22;55469;48.934;12.050;2024-02-21T13:33:16;7.90;99.90
68480;DHT22;55469;48.934;12.050;2024-02-21T13:35:41;7.90;99.90
68480;DHT22;55469;48.934;12.050;2024-02-21T13:38:07;7.90;99.90
68480;DHT22;55469;48.934;12.050;2024-02-21T13:40:35;7.90;99.90
68480;DHT22;55469;48.934;12.050;2024-02-21T13:43:00;7.90;99.90
68480;DHT22;55469;48.934;12.050;2024-02-21T13:45:26;7.90;99.90
68480;DHT22;55469;48.934;12.050;2024-02-21T13:47:52;7.90;99.90
68480;DHT22;55469;48.934;12.050;2024-02-21T13:50:18;8.00;99.90
68480;DHT22;55469;48.934;12.050;2024-02-21T13:52:44;8.00;99.90
68480;DHT22;55469;48.934;12.050;2024-02-21T13:55:09;8.00;99.90
68480;DHT22;55469;48.934;12.050;2024-02-21T13:57:38;8.00;99.90
68480;DHT22;55469;48.934;12.050;2024-02-21T14:00:04;8.00;99.90
68480;DHT22;55469;48.934;12.050;2024-02-21T14:02:30;8.00;99.90
68480;DHT22;55469;48.934;12.050;2024-02-21T14:04:56;8.00;99.90
68480;DHT22;55469;48.934;12.050;2024-02-21T14:07:22;8.10;99.90
68480;DHT22;55469;48.934;12.050;2024-02-21T14:09:47;8.10;99.90
68480;DHT22;55469;48.934;12.050;2024-02-21T14:12:13;8.10;99.90
68480;DHT22;55469;48.934;12.050;2024-02-21T14:14:39;8.10;99.90
68480;DHT22;55469;48.934;12.050;2024-02-21T14:17:04;8.10;99.90
68480;DHT22;55469;48.934;12.050;2024-02-21T14:19:30;8.20;99.90
68480;DHT22;55469;48.934;12.050;2024-02-21T14:21:56;8.10;99.90
68480;DHT22;55469;48.934;12.050;2024-02-21T14:24:22;8.10;99.90
68480;DHT22;55469;48.934;12.050;2024-02-21T14:26:48;8.20;99.90
68480;DHT22;55469;48.934;12.050;2024-02-21T14:29:14;8.20;99.90
68480;DHT22;55469;48.934;12.050;2024-02-21T14:31:39;8.20;99.90
68480;DHT22;55469;48.934;12.050;2024-02-21T14:34:05;8.20;99.90
68480;DHT22;55469;48.934;12.050;2024-02-21T14:36:33;8.20;99.90
68480;DHT22;55469;48.934;12.050;2024-02-21T14:38:58;8.20;99.90
68480;DHT22;55469;48.934;12.050;2024-02-21T14:41:24;8.20;99.90
68480;DHT22;55469;48.934;12.050;2024-02-21T14:43:50;8.30;99.90
68480;DHT22;55469;48.934;12.050;2024-02-21T14:46:16;8.30;99.90
68480;DHT22;55469;48.934;12.050;2024-02-21T14:48:42;8.30;99.90
68480;DHT22;55469;48.934;12.050;2024-02-21T14:51:08;8.30;99.90
68480;DHT22;55469;48.934;12.050;2024-02-21T14:53:33;8.30;99.90
68480;DHT22;55469;48.934;12.050;2024-02-21T14:55:59;8.30;99.90
68480;DHT22;55469;48.934;12.050;2024-02-21T14:58:25;8.30;99.90
68480;DHT22;55469;48.934;12.050;2024-02-21T15:00:50;8.30;99.90
68480;DHT22;55469;48.934;12.050;2024-02-21T15:03:16;8.30;99.90
68480;DHT22;55469;48.934;12.050;2024-02-21T15:05:44;8.40;99.90
68480;DHT22;55469;48.934;12.050;2024-02-21T15:08:11;8.40;99.90
68480;DHT22;55469;48.934;12.050;2024-02-21T15:10:37;8.30;99.90
68480;DHT22;55469;48.934;12.050;2024-02-21T15:13:03;8.40;99.90
68480;DHT22;55469;48.934;12.050;2024-02-21T15:15:29;8.40;99.90
68480;DHT22;55469;48.934;12.050;2024-02-21T15:17:55;8.40;99.90
68480;DHT22;55469;48.934;12.050;2024-02-21T15:20:21;8.40;99.90
68480;DHT22;55469;48.934;12.050;2024-02-21T15:22:47;8.40;99.90
68480;DHT22;55469;48.934;12.050;2024-02-21T15:25:13;8.40;99.90
68480;DHT22;55469;48.934;12.050;2024-02-21T15:27:46;8.40;99.90
68480;DHT22;55469;48.934;12.050;2024-02-21T15:30:11;8.40;99.90
68480;DHT22;55469;48.934;12.050;2024-02-21T15:32:38;8.50;99.90